Gaselys — FMLU — position and weather

sailwx.info

Track history (hours):
 
Tides and Currents Weather Stations Pressure Air Temp Water Temp Dewpoint Dewpoint Depression Visibility Wind Speed Wind Dir Waves Ship Positions

Gaselys

Last reported at 2017-Nov-23 08:57 UTC. Time now 2017-Nov-24 00:03 UTC.
Position N 25°15' W 079°55'.

Length 287 m; draft 9.2 m.

Type: Ship (hazmat cat A). MMSI: 228333700.

Date/timePositionNaut miles runAvg speedWind from/ knotsBaromVisibWave heightAir tempDewpointWater temp
2017-Nov-23 08:57N 25°15' W 079°55'912.7
2017-Nov-23 08:16N 25°23' W 079°52'312.9
2017-Nov-23 08:00N 25°26' W 079°50'612.9
2017-Nov-23 07:30N 25°32' W 079°47'713.0
2017-Nov-23 07:00N 25°37' W 079°44'612.9
2017-Nov-23 06:30N 25°43' W 079°40'612.9
2017-Nov-23 06:00N 25°49' W 079°37'713.0
2017-Nov-23 05:30N 25°55' W 079°34'713.3
2017-Nov-23 05:00N 26°01' W 079°31'713.8
2017-Nov-23 04:30N 26°06' W 079°26'714.2
2017-Nov-23 04:00N 26°12' W 079°21'  
Track history (hours):
 
Tides and Currents Weather Stations Pressure Air Temp Water Temp Dewpoint Dewpoint Depression Visibility Wind Speed Wind Dir Waves Ship Positions

Gaselys

Last reported at 2017-Nov-23 08:57 UTC. Time now 2017-Nov-24 00:03 UTC.
Position N 25°15' W 079°55'.

Length 287 m; draft 9.2 m.

Type: Ship (hazmat cat A). MMSI: 228333700.

Date/timePositionNaut miles runAvg speedWind from/ knotsBaromVisibWave heightAir tempDewpointWater temp
2017-Nov-23 08:57N 25°15' W 079°55'912.7
2017-Nov-23 08:16N 25°23' W 079°52'312.9
2017-Nov-23 08:00N 25°26' W 079°50'612.9
2017-Nov-23 07:30N 25°32' W 079°47'713.0
2017-Nov-23 07:00N 25°37' W 079°44'612.9
2017-Nov-23 06:30N 25°43' W 079°40'612.9
2017-Nov-23 06:00N 25°49' W 079°37'713.0
2017-Nov-23 05:30N 25°55' W 079°34'713.3
2017-Nov-23 05:00N 26°01' W 079°31'713.8
2017-Nov-23 04:30N 26°06' W 079°26'714.2
2017-Nov-23 04:00N 26°12' W 079°21'  

Dump ship's entire track history